Terminal Aerodrome Forecast
Issued by NWS

Home | Current Version | Previous Version | Text Only | Print | Product List | Glossary On
Versions: 1 2 3 4 5 6 7 8 9 10 11 12 13 14 15 16 17 18 19
000
FTUS41 KBTV 212300
TAFMPV
TAF
KMPV 212336Z 2200/2224 17007KT P6SM OVC130
     FM220300 18006KT 6SM -SHRA BKN035 OVC080
     FM220600 23006KT P6SM BKN060 BKN120
     FM221000 26009KT P6SM OVC020
     FM221300 29014G24KT P6SM OVC015=

USA.gov is the U.S. government's official web portal to all federal, state and local government web resources and services.